Time;durP1;ratioP1;P1;durP2;ratioP2;P2;SDS_P1;SDS_P2;PMS_P1;PMS_P2;Temp;Humidity;BMP_temperature;BMP_pressure;BME280_temperature;BME280_humidity;BME280_pressure;Samples;Min_cycle;Max_cycle;Signal;HPM_P1;HPM_P2
2021/12/05 00:18:10;;;;;;;21.67;10.93;;;4.20;99.90;;;;;;5174178;27;20050;-71
2021/12/05 00:20:55;;;;;;;22.50;9.82;;;4.20;99.90;;;;;;5173556;27;20397;-71
2021/12/05 00:23:27;;;;;;;19.70;9.80;;;4.30;99.90;;;;;;5173919;27;20037;-71
2021/12/05 00:25:55;;;;;;;18.85;8.63;;;4.20;99.90;;;;;;5173817;27;20089;-71
2021/12/05 00:31:33;;;;;;;20.98;7.22;;;4.30;99.90;;;;;;5157618;27;20489;-71
2021/12/05 00:34:29;;;;;;;18.27;8.25;;;4.30;99.90;;;;;;5152604;27;20418;-71
2021/12/05 00:40:15;;;;;;;14.85;8.05;;;4.30;99.90;;;;;;5144589;27;20142;-72
2021/12/05 00:48:32;;;;;;;14.35;7.10;;;4.20;99.90;;;;;;5131974;27;20055;-73
2021/12/05 00:51:18;;;;;;;15.80;6.95;;;4.20;99.90;;;;;;5131583;27;20051;-73
2021/12/05 00:54:45;;;;;;;13.32;6.07;;;4.20;99.90;;;;;;5131510;27;20081;-71
2021/12/05 01:02:31;;;;;;;10.98;5.43;;;4.20;99.90;;;;;;5121134;27;20055;-71
2021/12/05 01:08:15;;;;;;;15.13;5.60;;;4.20;99.90;;;;;;5176668;27;20481;-71
2021/12/05 01:11:12;;;;;;;9.55;4.97;;;4.10;99.90;;;;;;5158201;27;20112;-71
2021/12/05 01:13:45;;;;;;;9.40;5.00;;;4.10;99.90;;;;;;5158961;27;20126;-71
2021/12/05 01:16:18;;;;;;;10.93;5.63;;;4.10;99.90;;;;;;5177411;27;20114;-71
2021/12/05 01:18:47;;;;;;;7.63;4.68;;;4.10;99.90;;;;;;5158743;27;20050;-72
2021/12/05 01:21:18;;;;;;;13.35;6.22;;;4.10;99.90;;;;;;5158851;27;20077;-72
2021/12/05 01:23:54;;;;;;;14.32;5.75;;;4.10;99.90;;;;;;5158408;27;20043;-72
2021/12/05 01:26:26;;;;;;;9.45;4.78;;;4.10;99.90;;;;;;5158983;27;20046;-72
2021/12/05 01:29:06;;;;;;;10.43;5.15;;;4.10;99.90;;;;;;5158826;27;20106;-71
2021/12/05 01:31:43;;;;;;;11.43;5.13;;;4.10;99.90;;;;;;5158253;27;20158;-72
2021/12/05 01:34:24;;;;;;;7.53;4.65;;;4.00;99.90;;;;;;5176441;27;20165;-72
2021/12/05 01:37:01;;;;;;;10.45;5.65;;;4.10;99.90;;;;;;5158479;27;20050;-72
2021/12/05 01:39:44;;;;;;;10.07;4.80;;;4.00;99.90;;;;;;5157951;27;20081;-72
2021/12/05 01:53:45;;;;;;;12.27;5.43;;;3.90;99.90;;;;;;5157715;27;20058;-72
2021/12/05 01:59:09;;;;;;;12.82;5.72;;;3.90;99.90;;;;;;5157535;27;20046;-72
2021/12/05 02:01:53;;;;;;;16.63;6.90;;;3.90;99.90;;;;;;5158197;27;20102;-73
2021/12/05 02:15:54;;;;;;;;;;;3.90;99.90;;;;;;5063648;27;20058;-72
2021/12/05 02:29:38;;;;;;;15.60;6.35;;;3.90;99.90;;;;;;5116110;27;20047;-72
2021/12/05 02:35:01;;;;;;;11.48;6.25;;;3.90;99.90;;;;;;5134297;27;20143;-71
2021/12/05 02:38:01;;;;;;;14.77;6.63;;;3.90;99.90;;;;;;5136786;27;20062;-72
2021/12/05 02:40:34;;;;;;;10.25;6.20;;;3.90;99.90;;;;;;5136424;27;20571;-71
2021/12/05 02:43:08;;;;;;;11.27;6.05;;;3.90;99.90;;;;;;5135644;27;20486;-72
2021/12/05 02:45:37;;;;;;;11.98;6.28;;;3.90;99.90;;;;;;5136087;27;20039;-71
2021/12/05 02:48:05;;;;;;;11.27;6.60;;;3.90;99.90;;;;;;5133461;27;20072;-71
2021/12/05 02:50:34;;;;;;;11.32;6.40;;;3.90;99.90;;;;;;5134068;27;20124;-71
2021/12/05 02:53:11;;;;;;;16.13;7.03;;;3.90;99.90;;;;;;5115814;27;20047;-71
2021/12/05 02:55:38;;;;;;;10.60;6.28;;;3.90;99.90;;;;;;5114718;27;20047;-71
2021/12/05 02:58:15;;;;;;;14.68;6.97;;;3.90;99.90;;;;;;5115908;27;20051;-71
2021/12/05 03:00:51;;;;;;;13.30;6.35;;;3.90;99.90;;;;;;5115654;27;20107;-71
2021/12/05 03:03:21;;;;;;;15.15;6.50;;;3.90;99.90;;;;;;5135778;27;20133;-72
2021/12/05 03:05:53;;;;;;;10.85;6.35;;;3.90;99.90;;;;;;5156498;27;20049;-72
2021/12/05 03:08:22;;;;;;;10.13;6.28;;;3.90;99.90;;;;;;5156778;27;20531;-73
2021/12/05 03:10:50;;;;;;;13.27;6.60;;;3.90;99.90;;;;;;5155928;27;20060;-73
2021/12/05 03:13:17;;;;;;;15.20;6.82;;;3.90;99.90;;;;;;5156595;27;20049;-73
2021/12/05 03:15:44;;;;;;;11.63;6.30;;;3.90;99.90;;;;;;5156316;27;20045;-73
2021/12/05 03:18:11;;;;;;;11.82;5.57;;;3.90;99.90;;;;;;5156251;27;20049;-73
2021/12/05 03:20:38;;;;;;;11.45;5.80;;;3.90;99.90;;;;;;5156749;27;20062;-73
2021/12/05 03:23:05;;;;;;;12.35;6.05;;;3.90;99.90;;;;;;5155747;27;20081;-73
2021/12/05 03:25:34;;;;;;;16.08;5.72;;;3.90;99.90;;;;;;5156482;27;20081;-73
2021/12/05 03:28:01;;;;;;;9.95;5.97;;;3.90;99.90;;;;;;5156501;27;20476;-73
2021/12/05 03:30:29;;;;;;;13.77;6.20;;;3.90;99.90;;;;;;5155541;27;20170;-73
2021/12/05 03:32:56;;;;;;;13.52;6.68;;;3.90;99.90;;;;;;5156413;27;20065;-73
2021/12/05 03:35:25;;;;;;;13.43;6.63;;;3.90;99.90;;;;;;5155947;27;20038;-73
2021/12/05 03:37:52;;;;;;;9.35;5.97;;;3.90;99.90;;;;;;5156052;27;20050;-73
2021/12/05 03:40:22;;;;;;;17.23;6.68;;;3.90;99.90;;;;;;5156579;27;20081;-73
2021/12/05 03:42:51;;;;;;;17.02;6.85;;;3.90;99.90;;;;;;5156140;27;20431;-73
2021/12/05 03:45:22;;;;;;;17.25;6.50;;;3.90;99.90;;;;;;5155771;27;20430;-73
2021/12/05 03:47:49;;;;;;;13.90;7.38;;;3.80;99.90;;;;;;5156448;27;20571;-73
2021/12/05 03:50:17;;;;;;;11.07;6.57;;;3.80;99.90;;;;;;5156376;27;20082;-73
2021/12/05 03:52:44;;;;;;;12.50;7.40;;;3.80;99.90;;;;;;5155607;27;20157;-72
2021/12/05 03:55:12;;;;;;;14.27;8.02;;;3.80;99.90;;;;;;5155512;27;20161;-72
2021/12/05 03:57:39;;;;;;;15.57;7.57;;;3.80;99.90;;;;;;5155651;27;20082;-72
2021/12/05 04:00:16;;;;;;;14.05;7.78;;;3.80;99.90;;;;;;5149804;27;20133;-71
2021/12/05 04:02:43;;;;;;;12.00;6.50;;;3.80;99.90;;;;;;5135311;27;20137;-71
2021/12/05 04:05:10;;;;;;;13.05;7.20;;;3.80;99.90;;;;;;5134475;27;20162;-71
2021/12/05 04:07:37;;;;;;;17.52;7.68;;;3.80;99.90;;;;;;5135368;27;20093;-71
2021/12/05 04:10:04;;;;;;;15.35;7.78;;;3.80;99.90;;;;;;5135507;27;20141;-71
2021/12/05 04:12:31;;;;;;;18.83;8.10;;;3.80;99.90;;;;;;5134696;27;20054;-71
2021/12/05 04:14:58;;;;;;;12.77;7.68;;;3.70;99.90;;;;;;5134898;27;20482;-71
2021/12/05 04:17:27;;;;;;;14.75;7.82;;;3.70;99.90;;;;;;5135191;27;20153;-71
2021/12/05 04:19:54;;;;;;;16.90;8.35;;;3.70;99.90;;;;;;5134709;27;20080;-72
2021/12/05 04:22:21;;;;;;;20.98;8.75;;;3.60;99.90;;;;;;5135173;27;20396;-72
2021/12/05 04:24:49;;;;;;;19.92;8.05;;;3.60;99.90;;;;;;5135017;27;20051;-70
2021/12/05 04:27:17;;;;;;;24.40;9.15;;;3.50;99.90;;;;;;5134287;27;20058;-71
2021/12/05 04:29:44;;;;;;;16.90;9.18;;;3.50;99.90;;;;;;5137099;27;20387;-71
2021/12/05 04:32:11;;;;;;;20.63;9.73;;;3.50;99.90;;;;;;5155899;27;20053;-71
2021/12/05 04:34:39;;;;;;;14.85;8.63;;;3.50;99.90;;;;;;5154991;27;20477;-70
2021/12/05 04:37:06;;;;;;;14.27;9.20;;;3.40;99.90;;;;;;5155573;27;20578;-72
2021/12/05 04:39:33;;;;;;;19.65;9.80;;;3.40;99.90;;;;;;5155947;27;20106;-72
2021/12/05 04:42:00;;;;;;;19.50;10.13;;;3.40;99.90;;;;;;5158759;27;20101;-72
2021/12/05 04:44:28;;;;;;;22.83;10.43;;;3.40;99.90;;;;;;5159641;27;20497;-72
2021/12/05 04:46:57;;;;;;;25.10;10.93;;;3.30;99.90;;;;;;5159578;27;20107;-72
2021/12/05 04:49:24;;;;;;;17.48;9.70;;;3.30;99.90;;;;;;5159105;27;20057;-72
2021/12/05 04:51:53;;;;;;;17.25;10.73;;;3.30;99.90;;;;;;5159562;27;20472;-71
2021/12/05 04:54:21;;;;;;;21.17;10.50;;;3.30;99.90;;;;;;5158953;27;20054;-72
2021/12/05 04:56:49;;;;;;;19.55;10.45;;;3.30;99.90;;;;;;5159557;27;20091;-72
2021/12/05 04:59:17;;;;;;;20.60;9.80;;;3.30;99.90;;;;;;5159591;27;20141;-72
2021/12/05 05:01:46;;;;;;;18.77;9.88;;;3.40;99.90;;;;;;5135909;27;20177;-71
2021/12/05 05:04:21;;;;;;;21.00;10.52;;;3.40;99.90;;;;;;5117830;27;20104;-72
2021/12/05 05:06:49;;;;;;;19.95;10.93;;;3.40;99.90;;;;;;5117966;27;20054;-71
2021/12/05 05:09:17;;;;;;;23.83;10.60;;;3.40;99.90;;;;;;5117345;27;20057;-71
2021/12/05 05:11:44;;;;;;;23.15;10.85;;;3.40;99.90;;;;;;5117794;27;20112;-72
2021/12/05 05:14:13;;;;;;;20.80;11.35;;;3.40;99.90;;;;;;5117749;27;20225;-72
2021/12/05 05:16:40;;;;;;;23.50;10.57;;;3.40;99.90;;;;;;5117171;27;20104;-72
2021/12/05 05:19:08;;;;;;;22.38;10.43;;;3.50;99.90;;;;;;5117822;27;20130;-72
2021/12/05 05:21:41;;;;;;;25.67;9.95;;;3.40;99.90;;;;;;5135917;27;20050;-72
2021/12/05 05:44:13;;;;;;;19.25;10.77;;;3.50;99.90;;;;;;5054734;28;20060;-72
2021/12/05 05:46:53;;;;;;;25.17;10.93;;;3.50;99.90;;;;;;5060942;28;20052;-72
2021/12/05 05:49:23;;;;;;;17.70;8.57;;;3.50;99.90;;;;;;5140841;27;20394;-72
2021/12/05 05:51:50;;;;;;;19.90;10.45;;;3.50;99.90;;;;;;5157714;27;20050;-72
2021/12/05 05:54:19;;;;;;;16.23;9.02;;;3.50;99.90;;;;;;5157857;27;20085;-71
2021/12/05 05:56:46;;;;;;;21.98;10.50;;;3.50;99.90;;;;;;5158028;27;20078;-72
2021/12/05 05:59:21;;;;;;;14.07;8.13;;;3.50;99.90;;;;;;5157285;27;20050;-71
2021/12/05 06:03:19;;;;;;;19.58;9.50;;;3.50;99.90;;;;;;5135154;27;20066;-71
2021/12/05 06:04:47;;;;;;;18.90;8.77;;;3.50;99.90;;;;;;5115938;27;20039;-71
2021/12/05 06:07:15;;;;;;;20.10;8.93;;;3.50;99.90;;;;;;5116670;27;20951;-72
2021/12/05 06:09:42;;;;;;;22.50;8.68;;;3.40;99.90;;;;;;5116858;27;20047;-72
2021/12/05 06:12:09;;;;;;;17.92;7.60;;;3.40;99.90;;;;;;5115882;27;20491;-72
2021/12/05 06:14:37;;;;;;;17.85;8.40;;;3.40;99.90;;;;;;5116529;27;20058;-72
2021/12/05 06:17:04;;;;;;;22.20;8.60;;;3.40;99.90;;;;;;5118523;27;20079;-72
2021/12/05 06:19:31;;;;;;;17.17;8.35;;;3.30;99.90;;;;;;5156863;27;20050;-71
2021/12/05 06:21:58;;;;;;;13.80;7.47;;;3.30;99.90;;;;;;5157727;27;20538;-71
2021/12/05 06:24:26;;;;;;;19.35;8.93;;;3.30;99.90;;;;;;5157115;27;20054;-72
2021/12/05 06:26:53;;;;;;;19.80;7.88;;;3.30;99.90;;;;;;5157018;27;20039;-71
2021/12/05 06:29:21;;;;;;;17.63;7.43;;;3.30;99.90;;;;;;5157603;27;20374;-72
2021/12/05 06:32:00;;;;;;;18.25;7.32;;;3.20;99.90;;;;;;5157226;27;20057;-71
2021/12/05 06:37:28;;;;;;;19.02;7.90;;;3.20;99.90;;;;;;5154923;27;20054;-71
2021/12/05 06:42:51;;;;;;;21.15;7.68;;;3.10;99.90;;;;;;5108734;27;20494;-71
2021/12/05 06:48:04;;;;;;;13.52;6.10;;;3.10;99.90;;;;;;5114924;27;20055;-72
2021/12/05 06:50:31;;;;;;;14.32;7.10;;;3.10;99.90;;;;;;5115893;27;20146;-71
2021/12/05 06:52:58;;;;;;;16.52;6.82;;;3.00;99.90;;;;;;5115799;27;20482;-72
2021/12/05 06:55:25;;;;;;;17.20;7.55;;;3.00;99.90;;;;;;5114641;27;20059;-72
2021/12/05 06:57:51;;;;;;;14.88;7.22;;;3.00;99.90;;;;;;5140093;27;20050;-70
2021/12/05 07:00:21;;;;;;;14.43;6.50;;;3.00;99.90;;;;;;5157023;27;20445;-72
2021/12/05 07:02:48;;;;;;;18.63;6.88;;;3.00;99.90;;;;;;5156029;27;20373;-72
2021/12/05 07:07:57;;;;;;;19.50;6.85;;;2.90;99.90;;;;;;5155702;27;20184;-72
2021/12/05 07:10:24;;;;;;;16.60;6.10;;;2.90;99.90;;;;;;5156460;27;20137;-72
2021/12/05 07:13:26;;;;;;;17.10;6.18;;;3.00;99.90;;;;;;5156530;27;20049;-71
2021/12/05 07:15:51;;;;;;;19.50;7.13;;;2.90;99.90;;;;;;5155675;27;20497;-71
2021/12/05 07:21:12;;;;;;;22.02;7.18;;;3.00;99.90;;;;;;5156756;27;20050;-71
2021/12/05 07:23:49;;;;;;;13.27;6.47;;;3.00;99.90;;;;;;5156026;27;20102;-72
2021/12/05 07:26:23;;;;;;;14.05;5.60;;;3.00;99.90;;;;;;5156035;27;20111;-71
2021/12/05 07:42:38;;;;;;;19.70;7.18;;;3.10;99.90;;;;;;5135393;27;20141;-72
2021/12/05 07:45:07;;;;;;;15.57;8.18;;;3.10;99.90;;;;;;5134538;27;20061;-72
2021/12/05 07:47:36;;;;;;;19.98;7.63;;;3.10;99.90;;;;;;5125908;27;20069;-71
2021/12/05 07:50:07;;;;;;;18.15;6.55;;;3.10;99.90;;;;;;5121233;27;20051;-71
2021/12/05 07:52:40;;;;;;;12.60;6.22;;;3.10;99.90;;;;;;5120917;27;20094;-72
2021/12/05 07:55:14;;;;;;;16.27;6.25;;;3.10;99.90;;;;;;5123022;28;20491;-72
2021/12/05 07:57:57;;;;;;;19.42;6.38;;;3.10;99.90;;;;;;5120503;27;20047;-71
2021/12/05 08:00:30;;;;;;;13.68;6.50;;;3.20;99.90;;;;;;5129563;27;20083;-71
2021/12/05 08:16:44;;;;;;;15.90;6.78;;;3.30;99.90;;;;;;5127283;27;20047;-72
2021/12/05 08:19:11;;;;;;;14.63;6.72;;;3.30;99.90;;;;;;5127242;27;20047;-71
2021/12/05 08:21:38;;;;;;;17.55;6.80;;;3.30;99.90;;;;;;5129451;27;20053;-71
2021/12/05 08:24:06;;;;;;;15.63;6.18;;;3.30;99.90;;;;;;5129259;27;20134;-71
2021/12/05 08:26:35;;;;;;;13.07;6.95;;;3.30;99.90;;;;;;5121787;27;20121;-71
2021/12/05 08:29:06;;;;;;;17.60;6.97;;;3.30;99.90;;;;;;5134878;27;20050;-71
2021/12/05 08:31:45;;;;;;;18.00;6.55;;;3.40;99.90;;;;;;5128431;27;20054;-70
2021/12/05 08:34:24;;;;;;;13.50;6.95;;;3.40;99.90;;;;;;5144218;27;20043;-71
2021/12/05 08:37:18;;;;;;;15.35;6.63;;;3.40;99.90;;;;;;5133649;27;20111;-71
2021/12/05 08:40:17;;;;;;;15.10;8.73;;;3.50;99.90;;;;;;5129140;27;20077;-72
2021/12/05 08:43:18;;;;;;;23.25;8.48;;;3.50;99.90;;;;;;5127157;27;20043;-72
2021/12/05 09:30:13;;;;;;;16.23;7.65;;;4.30;99.90;;;;;;5082588;27;19919;-71
2021/12/05 10:03:12;;;;;;;18.02;8.57;;;4.20;99.90;;;;;;5119988;27;20061;-71
2021/12/05 10:11:36;;;;;;;14.50;8.10;;;4.20;99.90;;;;;;5093512;27;20403;-72
2021/12/05 10:14:19;;;;;;;17.67;8.23;;;4.20;99.90;;;;;;5133164;27;20053;-71
2021/12/05 10:17:05;;;;;;;16.60;7.90;;;4.20;99.90;;;;;;5124666;27;20049;-71
2021/12/05 10:20:16;;;;;;;15.77;7.95;;;4.20;99.90;;;;;;5125464;27;20066;-73
2021/12/05 10:34:13;;;;;;;15.10;8.77;;;4.40;99.90;;;;;;5127683;27;20047;-72
2021/12/05 10:36:42;;;;;;;13.25;7.85;;;4.40;99.90;;;;;;5130688;27;20039;-71
2021/12/05 10:39:19;;;;;;;19.17;8.93;;;4.40;99.90;;;;;;5121410;27;20086;-71
2021/12/05 10:42:01;;;;;;;15.73;8.77;;;4.40;99.90;;;;;;5121967;27;20119;-71
2021/12/05 10:44:42;;;;;;;14.82;8.40;;;4.40;99.90;;;;;;5123668;27;20490;-72
2021/12/05 10:47:09;;;;;;;14.25;8.20;;;4.30;99.90;;;;;;5121890;27;20055;-69
2021/12/05 10:49:36;;;;;;;16.83;9.13;;;4.30;99.90;;;;;;5126397;27;20129;-71
2021/12/05 10:52:05;;;;;;;19.38;9.15;;;4.30;99.90;;;;;;5120654;27;20139;-72
2021/12/05 10:54:32;;;;;;;14.07;8.65;;;4.30;99.90;;;;;;5129656;27;20111;-71
2021/12/05 10:57:01;;;;;;;18.55;7.93;;;4.30;99.90;;;;;;5118695;27;20047;-72
2021/12/05 10:59:37;;;;;;;15.25;8.85;;;4.40;99.90;;;;;;5121098;27;20091;-73
2021/12/05 11:02:06;;;;;;;16.90;8.40;;;4.40;99.90;;;;;;5120015;27;20178;-72
2021/12/05 11:04:35;;;;;;;17.17;8.40;;;4.40;99.90;;;;;;5125198;27;20112;-71
2021/12/05 11:07:07;;;;;;;17.35;7.90;;;4.40;99.90;;;;;;5125976;27;20075;-71
2021/12/05 11:09:36;;;;;;;16.70;8.90;;;4.40;99.90;;;;;;5115834;27;20051;-73
2021/12/05 11:12:11;;;;;;;13.75;7.93;;;4.40;99.90;;;;;;5114159;27;20055;-72
2021/12/05 11:14:41;;;;;;;21.17;8.48;;;4.40;99.90;;;;;;5126480;27;20430;-72
2021/12/05 11:17:10;;;;;;;15.40;8.45;;;4.40;99.90;;;;;;5123821;27;20133;-73
2021/12/05 11:19:40;;;;;;;18.27;8.75;;;4.40;99.90;;;;;;5120608;27;20132;-72
2021/12/05 11:22:20;;;;;;;18.20;8.75;;;4.40;99.90;;;;;;5122389;27;20094;-73
2021/12/05 11:24:51;;;;;;;15.30;8.05;;;4.50;99.90;;;;;;5117293;27;20059;-73
2021/12/05 11:27:24;;;;;;;11.07;7.90;;;4.50;99.90;;;;;;5116035;27;20078;-72
2021/12/05 11:30:02;;;;;;;16.67;8.20;;;4.50;99.90;;;;;;5127707;27;20079;-73
2021/12/05 11:32:37;;;;;;;13.52;7.90;;;4.60;99.90;;;;;;5128889;27;20088;-73
2021/12/05 11:35:32;;;;;;;17.45;8.73;;;4.60;99.90;;;;;;5122118;27;20071;-73
2021/12/05 11:38:07;;;;;;;14.02;7.45;;;4.60;99.90;;;;;;5120510;27;20578;-73
2021/12/05 11:40:54;;;;;;;13.20;7.45;;;4.70;99.90;;;;;;5125338;27;20079;-72
2021/12/05 11:43:24;;;;;;;20.75;7.05;;;4.70;99.90;;;;;;5127067;27;20139;-72
2021/12/05 11:45:56;;;;;;;17.75;7.80;;;4.80;99.90;;;;;;5118725;27;20134;-73
2021/12/05 11:48:29;;;;;;;18.65;7.35;;;4.80;99.90;;;;;;5126704;27;20466;-73
2021/12/05 11:50:57;;;;;;;15.93;7.25;;;4.80;99.90;;;;;;5119812;27;20439;-72
2021/12/05 11:53:44;;;;;;;15.88;7.63;;;4.80;99.90;;;;;;5120433;27;20154;-73
2021/12/05 11:56:20;;;;;;;14.57;7.80;;;4.90;99.90;;;;;;5115280;28;20120;-74
2021/12/05 11:59:06;;;;;;;15.32;7.85;;;4.90;99.90;;;;;;5118870;27;20131;-74
2021/12/05 12:01:36;;;;;;;15.23;7.60;;;4.90;99.90;;;;;;5123892;27;20133;-73
2021/12/05 12:04:03;;;;;;;13.60;7.53;;;5.00;99.90;;;;;;5125027;28;20401;-73
2021/12/05 12:06:30;;;;;;;14.05;7.50;;;5.00;99.90;;;;;;5126327;27;20130;-73
2021/12/05 12:08:58;;;;;;;10.85;7.10;;;5.10;99.90;;;;;;5121580;27;20570;-73
2021/12/05 12:11:25;;;;;;;18.13;8.15;;;5.20;99.90;;;;;;5121509;27;20090;-73
2021/12/05 12:13:54;;;;;;;12.63;7.68;;;5.20;99.90;;;;;;5123498;27;20138;-74
2021/12/05 12:16:22;;;;;;;14.48;7.93;;;5.20;99.90;;;;;;5130001;27;20043;-73
2021/12/05 12:18:51;;;;;;;14.65;8.05;;;5.10;99.90;;;;;;5123152;28;20126;-74
2021/12/05 12:21:22;;;;;;;13.20;7.40;;;5.20;99.90;;;;;;5124427;27;20389;-73
2021/12/05 12:23:51;;;;;;;11.85;8.02;;;5.20;99.90;;;;;;5120149;28;20510;-74
2021/12/05 12:26:20;;;;;;;14.60;7.47;;;5.20;99.90;;;;;;5128148;28;20122;-73
2021/12/05 12:28:46;;;;;;;17.00;7.68;;;5.30;99.90;;;;;;5130875;27;20431;-74
2021/12/05 12:31:18;;;;;;;15.25;8.18;;;5.30;99.90;;;;;;5121397;27;20051;-73
2021/12/05 12:33:51;;;;;;;16.13;7.97;;;5.30;99.90;;;;;;5123812;27;20046;-73
2021/12/05 12:36:32;;;;;;;13.60;7.78;;;5.40;99.90;;;;;;5124111;27;20141;-73
2021/12/05 12:39:03;;;;;;;15.68;7.30;;;5.50;99.90;;;;;;5113273;27;20066;-72
2021/12/05 12:41:33;;;;;;;14.35;7.80;;;5.40;99.90;;;;;;5121345;27;20844;-72
2021/12/05 12:44:02;;;;;;;15.07;7.72;;;5.50;99.90;;;;;;5118117;27;20526;-71
2021/12/05 12:46:37;;;;;;;12.52;7.57;;;5.50;99.90;;;;;;5122486;28;20135;-70
2021/12/05 12:49:26;;;;;;;15.85;7.60;;;5.60;99.90;;;;;;5124906;27;20429;-71
2021/12/05 12:51:56;;;;;;;19.98;7.90;;;5.50;99.90;;;;;;5127755;28;20134;-70
2021/12/05 12:54:28;;;;;;;14.75;7.88;;;5.60;99.90;;;;;;5120823;28;20097;-63
2021/12/05 12:57:05;;;;;;;14.55;8.18;;;5.60;99.90;;;;;;5120631;28;20491;-63
2021/12/05 12:59:35;;;;;;;13.48;7.60;;;5.50;99.90;;;;;;5125588;27;20062;-63
2021/12/05 13:05:05;;;;;;;14.02;7.43;;;5.60;99.90;;;;;;5129338;27;20046;-63
2021/12/05 13:10:25;;;;;;;13.48;7.68;;;5.70;99.90;;;;;;5122654;27;20042;-64
2021/12/05 13:12:56;;;;;;;11.85;7.05;;;5.70;99.90;;;;;;5126934;27;20090;-62
2021/12/05 13:15:33;;;;;;;11.52;6.75;;;5.70;99.90;;;;;;5137953;27;20479;-63
2021/12/05 13:18:03;;;;;;;13.68;6.43;;;5.60;99.90;;;;;;5124157;27;20349;-63
2021/12/05 13:20:50;;;;;;;13.05;7.32;;;5.60;99.90;;;;;;5134758;27;20057;-63
2021/12/05 13:23:20;;;;;;;14.25;6.68;;;5.70;99.90;;;;;;5120317;27;20138;-63
2021/12/05 13:26:07;;;;;;;13.38;6.72;;;5.70;99.90;;;;;;5124371;27;20126;-63
2021/12/05 13:28:37;;;;;;;10.27;6.90;;;5.70;99.90;;;;;;5123502;27;20118;-63
2021/12/05 13:31:30;;;;;;;13.02;6.90;;;5.80;99.90;;;;;;5138998;27;20539;-63
2021/12/05 13:34:15;;;;;;;11.18;6.40;;;5.80;99.90;;;;;;5119973;27;20051;-63
2021/12/05 13:36:45;;;;;;;13.18;6.70;;;6.00;99.90;;;;;;5126861;27;20147;-64
2021/12/05 13:39:30;;;;;;;14.15;6.32;;;6.30;99.90;;;;;;5120821;27;20505;-63
2021/12/05 13:42:04;;;;;;;14.70;7.22;;;6.40;99.90;;;;;;5144459;27;20125;-64
2021/12/05 13:45:09;;;;;;;11.20;6.30;;;6.40;99.90;;;;;;5130135;27;20051;-64
2021/12/05 13:47:39;;;;;;;13.30;6.93;;;6.30;99.90;;;;;;5143735;27;20428;-64
2021/12/05 13:50:40;;;;;;;;;;;6.30;99.90;;;;;;5123206;27;20051;-64
2021/12/05 13:53:33;;;;;;;13.75;7.57;;;6.30;99.90;;;;;;5073747;28;20284;-64
2021/12/05 13:56:09;;;;;;;11.02;6.90;;;6.20;99.90;;;;;;5065912;28;20469;-64
2021/12/05 13:58:42;;;;;;;15.98;7.43;;;6.10;99.90;;;;;;5107617;27;20138;-63
2021/12/05 14:01:14;;;;;;;14.93;6.90;;;6.00;99.90;;;;;;5121738;27;20100;-64
2021/12/05 14:04:01;;;;;;;10.60;6.20;;;6.00;99.90;;;;;;5123148;27;20129;-64
2021/12/05 14:06:53;;;;;;;16.73;7.95;;;5.90;99.90;;;;;;5128186;27;20141;-64
2021/12/05 14:09:25;;;;;;;12.40;6.93;;;5.90;99.90;;;;;;5125531;27;20118;-62
2021/12/05 14:12:03;;;;;;;13.35;7.32;;;5.80;99.90;;;;;;5139769;27;20118;-63
2021/12/05 14:14:34;;;;;;;11.00;7.00;;;5.80;99.90;;;;;;5129032;27;20046;-63
2021/12/05 14:17:06;;;;;;;14.48;6.93;;;5.70;99.90;;;;;;5130158;27;20049;-63
2021/12/05 14:19:35;;;;;;;13.82;6.57;;;5.70;99.90;;;;;;5121242;27;20134;-63
2021/12/05 14:22:04;;;;;;;10.10;5.85;;;5.70;99.90;;;;;;5122819;27;20051;-63
2021/12/05 14:24:35;;;;;;;12.32;6.97;;;5.60;99.90;;;;;;5122720;27;20454;-63
2021/12/05 14:27:03;;;;;;;;;;;5.60;99.90;;;;;;5125712;27;20146;-64
2021/12/05 14:29:33;;;;;;;10.13;6.93;;;5.50;99.90;;;;;;5135997;27;19965;-64
2021/12/05 14:32:04;;;;;;;14.38;7.47;;;5.60;99.90;;;;;;5128946;27;20067;-63
2021/12/05 14:34:31;;;;;;;10.05;6.68;;;5.40;99.90;;;;;;5131912;27;20051;-64
2021/12/05 14:37:02;;;;;;;10.63;7.13;;;5.40;99.90;;;;;;5138266;27;20397;-64
2021/12/05 14:39:31;;;;;;;10.50;6.85;;;5.40;99.90;;;;;;5128781;27;20550;-64
2021/12/05 14:42:01;;;;;;;14.02;7.70;;;5.40;99.90;;;;;;5129342;27;20157;-65
2021/12/05 14:44:29;;;;;;;9.70;6.40;;;5.30;99.90;;;;;;5128875;27;20051;-65
2021/12/05 14:47:00;;;;;;;16.00;6.97;;;5.30;99.90;;;;;;5123025;27;20126;-65
2021/12/05 14:49:29;;;;;;;;;;;5.20;99.90;;;;;;5143236;27;20561;-65
2021/12/05 14:51:57;;;;;;;12.77;8.02;;;5.20;99.90;;;;;;5123172;27;20014;-65
2021/12/05 14:54:31;;;;;;;13.63;7.38;;;5.20;99.90;;;;;;5128440;27;20111;-65
2021/12/05 14:56:58;;;;;;;19.60;7.70;;;5.20;99.90;;;;;;5123252;27;20047;-66
2021/12/05 14:59:26;;;;;;;14.73;8.48;;;5.20;99.90;;;;;;5120733;27;20135;-65
2021/12/05 15:01:58;;;;;;;15.85;8.00;;;5.10;99.90;;;;;;5126736;27;20126;-65
2021/12/05 15:04:31;;;;;;;17.13;9.32;;;5.10;99.90;;;;;;5118112;27;20128;-65
2021/12/05 15:06:58;;;;;;;15.48;8.68;;;5.10;99.90;;;;;;5125024;27;20047;-65
2021/12/05 15:09:31;;;;;;;16.35;8.77;;;5.00;99.90;;;;;;5127405;27;20093;-65
2021/12/05 15:12:01;;;;;;;14.73;8.75;;;5.00;99.90;;;;;;5124206;27;20078;-65
2021/12/05 15:14:29;;;;;;;16.45;9.85;;;4.90;99.90;;;;;;5124492;27;20087;-65
2021/12/05 15:17:04;;;;;;;17.05;9.30;;;4.90;99.90;;;;;;5126717;27;20127;-63
2021/12/05 15:19:33;;;;;;;14.88;9.15;;;4.90;99.90;;;;;;5138328;27;20127;-64
2021/12/05 15:22:02;;;;;;;16.13;9.20;;;4.80;99.90;;;;;;5118072;27;20130;-64
2021/12/05 15:24:30;;;;;;;18.05;9.10;;;4.80;99.90;;;;;;5123806;27;20050;-64
2021/12/05 15:26:59;;;;;;;14.77;9.88;;;4.80;99.90;;;;;;5121095;27;20050;-64
2021/12/05 15:29:28;;;;;;;21.25;10.10;;;4.70;99.90;;;;;;5122721;27;20469;-64
2021/12/05 15:31:56;;;;;;;20.63;8.85;;;4.70;99.90;;;;;;5117363;27;20097;-63
2021/12/05 15:34:27;;;;;;;18.40;9.93;;;4.70;99.90;;;;;;5115298;27;20459;-63
2021/12/05 15:36:57;;;;;;;21.73;10.75;;;4.70;99.90;;;;;;5112054;27;20155;-63
2021/12/05 15:39:26;;;;;;;18.65;10.63;;;4.60;99.90;;;;;;5124399;27;20079;-63
2021/12/05 15:41:56;;;;;;;16.55;10.85;;;4.60;99.90;;;;;;5114053;27;20447;-63
2021/12/05 15:44:28;;;;;;;21.38;10.23;;;4.60;99.90;;;;;;5124431;27;20086;-63
2021/12/05 15:47:08;;;;;;;16.23;9.95;;;4.60;99.90;;;;;;5118022;27;20134;-63
2021/12/05 15:50:08;;;;;;;17.80;10.20;;;4.60;99.90;;;;;;5127286;27;20055;-63
2021/12/05 15:52:39;;;;;;;18.27;10.23;;;4.60;99.90;;;;;;5111045;28;20345;-63
2021/12/05 15:55:11;;;;;;;19.92;11.23;;;4.60;99.90;;;;;;5138805;27;20138;-63
2021/12/05 15:57:39;;;;;;;19.20;10.93;;;4.60;99.90;;;;;;5117539;27;20555;-65
2021/12/05 16:00:13;;;;;;;17.83;10.70;;;4.50;99.90;;;;;;5130582;27;20102;-64
2021/12/05 16:02:42;;;;;;;18.98;9.80;;;4.50;99.90;;;;;;5121693;28;20142;-64
2021/12/05 16:05:18;;;;;;;21.50;11.23;;;4.50;99.90;;;;;;5119381;27;20085;-64
2021/12/05 16:07:46;;;;;;;23.65;11.63;;;4.50;99.90;;;;;;5114489;28;20467;-64
2021/12/05 16:10:17;;;;;;;19.48;12.38;;;4.50;99.90;;;;;;5120727;28;20131;-64
2021/12/05 16:12:46;;;;;;;23.55;12.45;;;4.50;99.90;;;;;;5115902;28;20081;-62
2021/12/05 16:15:15;;;;;;;23.38;13.02;;;4.50;99.90;;;;;;5117844;28;20058;-63
2021/12/05 16:17:42;;;;;;;24.23;12.57;;;4.50;99.90;;;;;;5117996;28;20134;-63
2021/12/05 16:20:22;;;;;;;21.63;12.73;;;4.50;99.90;;;;;;5123493;28;20386;-63
2021/12/05 16:23:15;;;;;;;19.27;12.82;;;4.40;99.90;;;;;;5116657;28;20083;-63
2021/12/05 16:25:55;;;;;;;21.55;12.60;;;4.40;99.90;;;;;;5127642;27;20096;-63
2021/12/05 16:28:25;;;;;;;28.77;15.15;;;4.40;99.90;;;;;;5126953;28;20353;-63
2021/12/05 16:31:01;;;;;;;22.20;14.32;;;4.40;99.90;;;;;;5122842;28;20118;-63
2021/12/05 16:33:29;;;;;;;24.80;14.70;;;4.40;99.90;;;;;;5122558;28;20039;-65
2021/12/05 16:35:58;;;;;;;22.77;13.30;;;4.40;99.90;;;;;;5116970;27;20058;-63
2021/12/05 16:38:37;;;;;;;21.50;13.75;;;4.30;99.90;;;;;;5135787;27;20165;-64
2021/12/05 16:41:12;;;;;;;26.10;13.85;;;4.30;99.90;;;;;;5122483;27;20058;-65
2021/12/05 16:43:46;;;;;;;22.13;13.50;;;4.30;99.90;;;;;;5117877;27;20158;-64
2021/12/05 16:46:16;;;;;;;23.92;13.80;;;4.30;99.90;;;;;;5120785;27;20392;-64
2021/12/05 16:48:45;;;;;;;18.90;12.73;;;4.20;99.90;;;;;;5125198;27;20450;-64
2021/12/05 16:51:19;;;;;;;20.92;13.48;;;4.30;99.90;;;;;;5121185;27;20138;-64
2021/12/05 16:53:51;;;;;;;21.52;13.45;;;4.30;99.90;;;;;;5123675;27;20054;-64
2021/12/05 16:56:43;;;;;;;28.23;15.60;;;4.30;99.90;;;;;;5130011;27;20413;-65
2021/12/05 16:59:15;;;;;;;26.10;15.27;;;4.30;99.90;;;;;;5123099;27;20398;-65
2021/12/05 17:01:42;;;;;;;27.27;15.90;;;4.30;99.90;;;;;;5123956;27;20517;-64
2021/12/05 17:04:11;;;;;;;27.58;16.98;;;4.30;99.90;;;;;;5118277;27;20074;-64
2021/12/05 17:06:51;;;;;;;26.95;16.48;;;4.30;99.90;;;;;;5129954;27;20410;-64
2021/12/05 17:09:20;;;;;;;30.27;16.50;;;4.20;99.90;;;;;;5128435;27;20044;-64
2021/12/05 17:11:47;;;;;;;31.52;16.42;;;4.20;99.90;;;;;;5121469;27;20082;-64